sensor_id;sensor_type;location;lat;lon;timestamp;P1;durP1;ratioP1;P2;durP2;ratioP2
22429;SDS011;11382;48.086;11.632;2023-06-10T00:00:17;8.80;;;7.47;;
22429;SDS011;11382;48.086;11.632;2023-06-10T00:02:46;8.60;;;7.38;;
22429;SDS011;11382;48.086;11.632;2023-06-10T00:05:15;8.20;;;7.10;;
22429;SDS011;11382;48.086;11.632;2023-06-10T00:07:45;8.48;;;7.22;;
22429;SDS011;11382;48.086;11.632;2023-06-10T00:10:14;9.40;;;7.40;;
22429;SDS011;11382;48.086;11.632;2023-06-10T00:12:42;8.85;;;7.30;;
22429;SDS011;11382;48.086;11.632;2023-06-10T00:15:11;7.75;;;6.95;;
22429;SDS011;11382;48.086;11.632;2023-06-10T00:17:39;8.32;;;7.20;;
22429;SDS011;11382;48.086;11.632;2023-06-10T00:20:08;8.48;;;7.15;;
22429;SDS011;11382;48.086;11.632;2023-06-10T00:22:38;7.75;;;6.93;;
22429;SDS011;11382;48.086;11.632;2023-06-10T00:25:08;9.73;;;7.65;;
22429;SDS011;11382;48.086;11.632;2023-06-10T00:27:37;9.55;;;7.32;;
22429;SDS011;11382;48.086;11.632;2023-06-10T00:30:05;8.13;;;7.05;;
22429;SDS011;11382;48.086;11.632;2023-06-10T00:32:36;11.48;;;7.80;;
22429;SDS011;11382;48.086;11.632;2023-06-10T00:35:05;8.32;;;7.47;;
22429;SDS011;11382;48.086;11.632;2023-06-10T00:37:34;8.63;;;7.43;;
22429;SDS011;11382;48.086;11.632;2023-06-10T00:40:02;9.38;;;7.63;;
22429;SDS011;11382;48.086;11.632;2023-06-10T00:42:31;9.27;;;7.07;;
22429;SDS011;11382;48.086;11.632;2023-06-10T00:44:59;9.50;;;7.50;;
22429;SDS011;11382;48.086;11.632;2023-06-10T00:47:28;9.90;;;7.13;;
22429;SDS011;11382;48.086;11.632;2023-06-10T00:49:58;9.77;;;7.30;;
22429;SDS011;11382;48.086;11.632;2023-06-10T00:52:27;8.82;;;7.22;;
22429;SDS011;11382;48.086;11.632;2023-06-10T00:54:57;8.85;;;7.35;;
22429;SDS011;11382;48.086;11.632;2023-06-10T00:57:25;9.18;;;7.93;;
22429;SDS011;11382;48.086;11.632;2023-06-10T00:59:54;9.60;;;7.30;;
22429;SDS011;11382;48.086;11.632;2023-06-10T01:02:22;9.30;;;7.45;;
22429;SDS011;11382;48.086;11.632;2023-06-10T01:04:50;10.20;;;7.82;;
22429;SDS011;11382;48.086;11.632;2023-06-10T01:07:22;12.40;;;7.90;;
22429;SDS011;11382;48.086;11.632;2023-06-10T01:09:54;7.68;;;6.90;;
22429;SDS011;11382;48.086;11.632;2023-06-10T01:14:58;8.52;;;6.85;;
22429;SDS011;11382;48.086;11.632;2023-06-10T01:17:28;8.10;;;6.88;;
22429;SDS011;11382;48.086;11.632;2023-06-10T01:19:57;10.65;;;7.72;;
22429;SDS011;11382;48.086;11.632;2023-06-10T01:22:29;11.40;;;8.27;;
22429;SDS011;11382;48.086;11.632;2023-06-10T01:24:58;10.70;;;7.97;;
22429;SDS011;11382;48.086;11.632;2023-06-10T01:27:28;13.40;;;8.20;;
22429;SDS011;11382;48.086;11.632;2023-06-10T01:30:03;10.02;;;8.20;;
22429;SDS011;11382;48.086;11.632;2023-06-10T01:32:36;11.73;;;8.63;;
22429;SDS011;11382;48.086;11.632;2023-06-10T01:35:07;11.57;;;8.25;;
22429;SDS011;11382;48.086;11.632;2023-06-10T01:37:38;12.02;;;7.90;;
22429;SDS011;11382;48.086;11.632;2023-06-10T01:40:10;9.70;;;7.72;;
22429;SDS011;11382;48.086;11.632;2023-06-10T01:42:39;10.85;;;7.65;;
22429;SDS011;11382;48.086;11.632;2023-06-10T01:45:08;9.05;;;8.13;;
22429;SDS011;11382;48.086;11.632;2023-06-10T01:47:36;9.77;;;7.95;;
22429;SDS011;11382;48.086;11.632;2023-06-10T01:50:05;9.23;;;7.80;;
22429;SDS011;11382;48.086;11.632;2023-06-10T01:52:34;10.02;;;7.90;;
22429;SDS011;11382;48.086;11.632;2023-06-10T01:55:04;9.38;;;7.78;;
22429;SDS011;11382;48.086;11.632;2023-06-10T01:57:33;10.38;;;7.30;;
22429;SDS011;11382;48.086;11.632;2023-06-10T02:00:02;9.48;;;8.05;;
22429;SDS011;11382;48.086;11.632;2023-06-10T02:02:40;9.77;;;8.00;;
22429;SDS011;11382;48.086;11.632;2023-06-10T02:05:08;10.55;;;9.07;;
22429;SDS011;11382;48.086;11.632;2023-06-10T02:07:37;9.88;;;8.27;;
22429;SDS011;11382;48.086;11.632;2023-06-10T02:10:07;9.73;;;8.15;;
22429;SDS011;11382;48.086;11.632;2023-06-10T02:12:35;10.85;;;8.52;;
22429;SDS011;11382;48.086;11.632;2023-06-10T02:15:03;10.15;;;8.45;;
22429;SDS011;11382;48.086;11.632;2023-06-10T02:17:32;10.55;;;8.40;;
22429;SDS011;11382;48.086;11.632;2023-06-10T02:20:00;12.23;;;8.57;;
22429;SDS011;11382;48.086;11.632;2023-06-10T02:22:32;9.63;;;8.27;;
22429;SDS011;11382;48.086;11.632;2023-06-10T02:25:00;9.50;;;8.02;;
22429;SDS011;11382;48.086;11.632;2023-06-10T02:27:31;10.90;;;8.55;;
22429;SDS011;11382;48.086;11.632;2023-06-10T02:29:59;10.68;;;8.23;;
22429;SDS011;11382;48.086;11.632;2023-06-10T02:32:30;10.52;;;8.52;;
22429;SDS011;11382;48.086;11.632;2023-06-10T02:34:58;10.30;;;8.43;;
22429;SDS011;11382;48.086;11.632;2023-06-10T02:37:28;12.82;;;8.38;;
22429;SDS011;11382;48.086;11.632;2023-06-10T02:39:57;10.88;;;8.70;;
22429;SDS011;11382;48.086;11.632;2023-06-10T02:42:25;11.40;;;8.73;;
22429;SDS011;11382;48.086;11.632;2023-06-10T02:44:55;11.35;;;8.90;;
22429;SDS011;11382;48.086;11.632;2023-06-10T02:47:33;11.07;;;8.88;;
22429;SDS011;11382;48.086;11.632;2023-06-10T02:50:02;10.93;;;8.63;;
22429;SDS011;11382;48.086;11.632;2023-06-10T02:52:35;11.43;;;9.35;;
22429;SDS011;11382;48.086;11.632;2023-06-10T02:55:04;10.93;;;8.80;;
22429;SDS011;11382;48.086;11.632;2023-06-10T02:57:33;12.05;;;8.95;;
22429;SDS011;11382;48.086;11.632;2023-06-10T03:00:05;11.15;;;9.30;;
22429;SDS011;11382;48.086;11.632;2023-06-10T03:02:38;12.00;;;8.88;;
22429;SDS011;11382;48.086;11.632;2023-06-10T03:05:08;10.68;;;8.95;;
22429;SDS011;11382;48.086;11.632;2023-06-10T03:07:40;11.13;;;8.77;;
22429;SDS011;11382;48.086;11.632;2023-06-10T03:10:08;11.65;;;9.50;;
22429;SDS011;11382;48.086;11.632;2023-06-10T03:12:39;14.15;;;9.50;;
22429;SDS011;11382;48.086;11.632;2023-06-10T03:15:09;11.02;;;9.27;;
22429;SDS011;11382;48.086;11.632;2023-06-10T03:17:38;12.00;;;9.20;;
22429;SDS011;11382;48.086;11.632;2023-06-10T03:20:07;11.00;;;9.00;;
22429;SDS011;11382;48.086;11.632;2023-06-10T03:22:38;12.52;;;8.93;;
22429;SDS011;11382;48.086;11.632;2023-06-10T03:25:08;10.45;;;8.95;;
22429;SDS011;11382;48.086;11.632;2023-06-10T03:27:43;13.43;;;9.27;;
22429;SDS011;11382;48.086;11.632;2023-06-10T03:30:14;11.25;;;8.93;;
22429;SDS011;11382;48.086;11.632;2023-06-10T03:32:44;11.68;;;8.40;;
22429;SDS011;11382;48.086;11.632;2023-06-10T03:35:15;10.48;;;8.13;;
22429;SDS011;11382;48.086;11.632;2023-06-10T03:37:43;11.98;;;8.95;;
22429;SDS011;11382;48.086;11.632;2023-06-10T03:40:12;10.65;;;8.75;;
22429;SDS011;11382;48.086;11.632;2023-06-10T03:42:43;10.65;;;9.07;;
22429;SDS011;11382;48.086;11.632;2023-06-10T03:45:15;10.25;;;8.80;;
22429;SDS011;11382;48.086;11.632;2023-06-10T03:47:45;10.45;;;9.15;;
22429;SDS011;11382;48.086;11.632;2023-06-10T03:50:17;10.90;;;8.50;;
22429;SDS011;11382;48.086;11.632;2023-06-10T03:52:46;10.80;;;8.85;;
22429;SDS011;11382;48.086;11.632;2023-06-10T03:55:15;11.40;;;8.60;;
22429;SDS011;11382;48.086;11.632;2023-06-10T03:57:44;11.60;;;9.68;;
22429;SDS011;11382;48.086;11.632;2023-06-10T04:00:13;9.95;;;8.68;;
22429;SDS011;11382;48.086;11.632;2023-06-10T04:02:43;12.25;;;8.55;;
22429;SDS011;11382;48.086;11.632;2023-06-10T04:05:22;10.90;;;8.70;;
22429;SDS011;11382;48.086;11.632;2023-06-10T04:07:51;9.85;;;8.07;;
22429;SDS011;11382;48.086;11.632;2023-06-10T04:10:20;10.20;;;8.50;;
22429;SDS011;11382;48.086;11.632;2023-06-10T04:12:47;9.85;;;7.93;;
22429;SDS011;11382;48.086;11.632;2023-06-10T04:15:18;10.32;;;8.23;;
22429;SDS011;11382;48.086;11.632;2023-06-10T04:17:46;9.50;;;8.20;;
22429;SDS011;11382;48.086;11.632;2023-06-10T04:20:17;11.98;;;8.70;;
22429;SDS011;11382;48.086;11.632;2023-06-10T04:22:47;8.30;;;7.47;;
22429;SDS011;11382;48.086;11.632;2023-06-10T04:25:15;10.00;;;7.72;;
22429;SDS011;11382;48.086;11.632;2023-06-10T04:27:43;10.45;;;8.25;;
22429;SDS011;11382;48.086;11.632;2023-06-10T04:30:12;10.27;;;8.18;;
22429;SDS011;11382;48.086;11.632;2023-06-10T04:32:43;10.10;;;7.78;;
22429;SDS011;11382;48.086;11.632;2023-06-10T04:35:15;10.80;;;7.67;;
22429;SDS011;11382;48.086;11.632;2023-06-10T04:37:45;9.82;;;7.97;;
22429;SDS011;11382;48.086;11.632;2023-06-10T04:40:13;8.52;;;7.55;;
22429;SDS011;11382;48.086;11.632;2023-06-10T04:42:42;9.02;;;7.32;;
22429;SDS011;11382;48.086;11.632;2023-06-10T04:45:10;10.38;;;7.82;;
22429;SDS011;11382;48.086;11.632;2023-06-10T04:47:39;9.40;;;7.45;;
22429;SDS011;11382;48.086;11.632;2023-06-10T04:50:09;9.02;;;8.02;;
22429;SDS011;11382;48.086;11.632;2023-06-10T04:52:37;8.48;;;7.68;;
22429;SDS011;11382;48.086;11.632;2023-06-10T04:55:08;9.15;;;7.32;;
22429;SDS011;11382;48.086;11.632;2023-06-10T04:57:37;11.55;;;8.15;;
22429;SDS011;11382;48.086;11.632;2023-06-10T05:00:06;9.10;;;8.13;;
22429;SDS011;11382;48.086;11.632;2023-06-10T05:02:34;9.38;;;7.30;;
22429;SDS011;11382;48.086;11.632;2023-06-10T05:05:02;8.90;;;7.82;;
22429;SDS011;11382;48.086;11.632;2023-06-10T05:07:32;11.70;;;8.02;;
22429;SDS011;11382;48.086;11.632;2023-06-10T05:10:00;9.65;;;8.63;;
22429;SDS011;11382;48.086;11.632;2023-06-10T05:12:29;9.52;;;8.52;;
22429;SDS011;11382;48.086;11.632;2023-06-10T05:14:57;10.68;;;8.77;;
22429;SDS011;11382;48.086;11.632;2023-06-10T05:17:25;10.40;;;8.88;;
22429;SDS011;11382;48.086;11.632;2023-06-10T05:19:53;12.07;;;8.70;;
22429;SDS011;11382;48.086;11.632;2023-06-10T05:22:22;10.18;;;8.73;;
22429;SDS011;11382;48.086;11.632;2023-06-10T05:24:52;9.48;;;8.27;;
22429;SDS011;11382;48.086;11.632;2023-06-10T05:27:20;9.63;;;8.30;;
22429;SDS011;11382;48.086;11.632;2023-06-10T05:29:48;9.65;;;8.35;;
22429;SDS011;11382;48.086;11.632;2023-06-10T05:32:17;8.52;;;7.63;;
22429;SDS011;11382;48.086;11.632;2023-06-10T05:34:46;9.38;;;8.10;;
22429;SDS011;11382;48.086;11.632;2023-06-10T05:37:13;9.50;;;8.07;;
22429;SDS011;11382;48.086;11.632;2023-06-10T05:39:41;10.18;;;8.05;;
22429;SDS011;11382;48.086;11.632;2023-06-10T05:42:11;10.15;;;8.18;;
22429;SDS011;11382;48.086;11.632;2023-06-10T05:44:39;9.43;;;8.40;;
22429;SDS011;11382;48.086;11.632;2023-06-10T05:47:07;10.40;;;8.75;;
22429;SDS011;11382;48.086;11.632;2023-06-10T05:49:35;9.70;;;8.35;;
22429;SDS011;11382;48.086;11.632;2023-06-10T05:52:03;9.57;;;8.60;;
22429;SDS011;11382;48.086;11.632;2023-06-10T05:54:31;10.35;;;8.63;;
22429;SDS011;11382;48.086;11.632;2023-06-10T05:56:59;9.10;;;8.20;;
22429;SDS011;11382;48.086;11.632;2023-06-10T05:59:29;11.52;;;9.20;;
22429;SDS011;11382;48.086;11.632;2023-06-10T06:01:57;10.52;;;9.15;;
22429;SDS011;11382;48.086;11.632;2023-06-10T06:04:25;9.43;;;8.23;;
22429;SDS011;11382;48.086;11.632;2023-06-10T06:06:53;9.73;;;8.77;;
22429;SDS011;11382;48.086;11.632;2023-06-10T06:09:21;9.90;;;8.43;;
22429;SDS011;11382;48.086;11.632;2023-06-10T06:11:49;11.30;;;8.20;;
22429;SDS011;11382;48.086;11.632;2023-06-10T06:14:17;9.50;;;8.50;;
22429;SDS011;11382;48.086;11.632;2023-06-10T06:16:46;9.20;;;8.30;;
22429;SDS011;11382;48.086;11.632;2023-06-10T06:19:14;8.90;;;8.00;;
22429;SDS011;11382;48.086;11.632;2023-06-10T06:21:42;9.20;;;8.10;;
22429;SDS011;11382;48.086;11.632;2023-06-10T06:24:10;9.43;;;7.70;;
22429;SDS011;11382;48.086;11.632;2023-06-10T06:26:38;8.18;;;7.38;;
22429;SDS011;11382;48.086;11.632;2023-06-10T06:29:06;8.55;;;7.80;;
22429;SDS011;11382;48.086;11.632;2023-06-10T06:31:34;8.82;;;7.85;;
22429;SDS011;11382;48.086;11.632;2023-06-10T06:34:04;9.95;;;8.18;;
22429;SDS011;11382;48.086;11.632;2023-06-10T06:36:32;9.02;;;7.65;;
22429;SDS011;11382;48.086;11.632;2023-06-10T06:39:00;8.63;;;7.78;;
22429;SDS011;11382;48.086;11.632;2023-06-10T06:41:28;8.65;;;7.55;;
22429;SDS011;11382;48.086;11.632;2023-06-10T06:43:56;8.35;;;7.53;;
22429;SDS011;11382;48.086;11.632;2023-06-10T06:46:29;8.38;;;7.57;;
22429;SDS011;11382;48.086;11.632;2023-06-10T06:48:57;9.35;;;7.80;;
22429;SDS011;11382;48.086;11.632;2023-06-10T06:51:26;9.90;;;8.00;;
22429;SDS011;11382;48.086;11.632;2023-06-10T06:53:55;8.65;;;7.68;;
22429;SDS011;11382;48.086;11.632;2023-06-10T06:56:25;8.38;;;7.47;;
22429;SDS011;11382;48.086;11.632;2023-06-10T06:58:54;9.15;;;7.28;;
22429;SDS011;11382;48.086;11.632;2023-06-10T07:01:23;9.98;;;7.78;;
22429;SDS011;11382;48.086;11.632;2023-06-10T07:03:51;7.75;;;7.00;;
22429;SDS011;11382;48.086;11.632;2023-06-10T07:06:19;7.65;;;6.85;;
22429;SDS011;11382;48.086;11.632;2023-06-10T07:08:49;8.38;;;7.47;;
22429;SDS011;11382;48.086;11.632;2023-06-10T07:11:18;7.63;;;6.85;;
22429;SDS011;11382;48.086;11.632;2023-06-10T07:13:46;8.73;;;7.03;;
22429;SDS011;11382;48.086;11.632;2023-06-10T07:16:14;8.63;;;7.35;;
22429;SDS011;11382;48.086;11.632;2023-06-10T07:18:42;7.97;;;7.07;;
22429;SDS011;11382;48.086;11.632;2023-06-10T07:21:10;7.38;;;6.68;;
22429;SDS011;11382;48.086;11.632;2023-06-10T07:23:41;7.65;;;6.95;;
22429;SDS011;11382;48.086;11.632;2023-06-10T07:26:11;6.90;;;6.20;;
22429;SDS011;11382;48.086;11.632;2023-06-10T07:28:39;6.90;;;6.20;;
22429;SDS011;11382;48.086;11.632;2023-06-10T07:31:08;6.70;;;6.10;;
22429;SDS011;11382;48.086;11.632;2023-06-10T07:33:38;6.07;;;5.57;;
22429;SDS011;11382;48.086;11.632;2023-06-10T07:36:06;6.97;;;6.28;;
22429;SDS011;11382;48.086;11.632;2023-06-10T07:38:34;7.85;;;7.15;;
22429;SDS011;11382;48.086;11.632;2023-06-10T07:41:03;7.93;;;7.13;;
22429;SDS011;11382;48.086;11.632;2023-06-10T07:43:32;7.00;;;6.30;;
22429;SDS011;11382;48.086;11.632;2023-06-10T07:46:00;7.25;;;6.65;;
22429;SDS011;11382;48.086;11.632;2023-06-10T07:48:28;6.43;;;5.82;;
22429;SDS011;11382;48.086;11.632;2023-06-10T07:50:56;7.63;;;6.88;;
22429;SDS011;11382;48.086;11.632;2023-06-10T07:53:24;7.15;;;6.55;;
22429;SDS011;11382;48.086;11.632;2023-06-10T07:55:52;7.45;;;6.75;;
22429;SDS011;11382;48.086;11.632;2023-06-10T07:58:20;7.43;;;6.72;;
22429;SDS011;11382;48.086;11.632;2023-06-10T08:00:50;7.38;;;6.68;;
22429;SDS011;11382;48.086;11.632;2023-06-10T08:03:18;6.82;;;6.22;;
22429;SDS011;11382;48.086;11.632;2023-06-10T08:05:46;6.25;;;5.65;;
22429;SDS011;11382;48.086;11.632;2023-06-10T08:08:18;4.47;;;4.07;;
22429;SDS011;11382;48.086;11.632;2023-06-10T08:10:47;5.50;;;4.72;;
22429;SDS011;11382;48.086;11.632;2023-06-10T08:13:17;4.35;;;3.95;;
22429;SDS011;11382;48.086;11.632;2023-06-10T08:15:47;5.22;;;4.72;;
22429;SDS011;11382;48.086;11.632;2023-06-10T08:18:21;4.88;;;4.47;;
22429;SDS011;11382;48.086;11.632;2023-06-10T08:20:51;5.20;;;4.80;;
22429;SDS011;11382;48.086;11.632;2023-06-10T08:23:19;5.63;;;5.13;;
22429;SDS011;11382;48.086;11.632;2023-06-10T08:25:49;5.63;;;5.10;;
22429;SDS011;11382;48.086;11.632;2023-06-10T08:28:17;5.38;;;4.88;;
22429;SDS011;11382;48.086;11.632;2023-06-10T08:30:45;5.72;;;5.22;;
22429;SDS011;11382;48.086;11.632;2023-06-10T08:33:15;4.97;;;4.43;;
22429;SDS011;11382;48.086;11.632;2023-06-10T08:35:43;4.80;;;4.40;;
22429;SDS011;11382;48.086;11.632;2023-06-10T08:38:11;5.03;;;4.57;;
22429;SDS011;11382;48.086;11.632;2023-06-10T08:40:38;4.28;;;3.88;;
22429;SDS011;11382;48.086;11.632;2023-06-10T08:43:07;5.82;;;4.45;;
22429;SDS011;11382;48.086;11.632;2023-06-10T08:45:36;4.72;;;4.22;;
22429;SDS011;11382;48.086;11.632;2023-06-10T08:48:05;4.35;;;3.95;;
22429;SDS011;11382;48.086;11.632;2023-06-10T08:50:37;4.80;;;4.40;;
22429;SDS011;11382;48.086;11.632;2023-06-10T08:53:06;5.15;;;4.75;;
22429;SDS011;11382;48.086;11.632;2023-06-10T08:55:35;4.82;;;4.43;;
22429;SDS011;11382;48.086;11.632;2023-06-10T08:58:05;4.47;;;3.83;;
22429;SDS011;11382;48.086;11.632;2023-06-10T09:00:34;4.60;;;4.20;;
22429;SDS011;11382;48.086;11.632;2023-06-10T09:03:03;4.40;;;4.00;;
22429;SDS011;11382;48.086;11.632;2023-06-10T09:05:35;4.28;;;3.88;;
22429;SDS011;11382;48.086;11.632;2023-06-10T09:08:05;4.25;;;3.28;;
22429;SDS011;11382;48.086;11.632;2023-06-10T09:10:33;5.32;;;3.33;;
22429;SDS011;11382;48.086;11.632;2023-06-10T09:13:01;4.28;;;3.88;;
22429;SDS011;11382;48.086;11.632;2023-06-10T09:15:31;3.88;;;3.58;;
22429;SDS011;11382;48.086;11.632;2023-06-10T09:17:59;4.07;;;3.70;;
22429;SDS011;11382;48.086;11.632;2023-06-10T09:20:28;4.05;;;3.75;;
22429;SDS011;11382;48.086;11.632;2023-06-10T09:22:58;3.75;;;3.45;;
22429;SDS011;11382;48.086;11.632;2023-06-10T09:25:34;3.40;;;3.10;;
22429;SDS011;11382;48.086;11.632;2023-06-10T09:28:04;3.63;;;3.33;;
22429;SDS011;11382;48.086;11.632;2023-06-10T09:30:39;3.50;;;3.20;;
22429;SDS011;11382;48.086;11.632;2023-06-10T09:33:10;3.85;;;3.50;;
22429;SDS011;11382;48.086;11.632;2023-06-10T09:35:44;4.70;;;4.30;;
22429;SDS011;11382;48.086;11.632;2023-06-10T09:38:15;6.03;;;4.65;;
22429;SDS011;11382;48.086;11.632;2023-06-10T09:40:50;4.90;;;4.50;;
22429;SDS011;11382;48.086;11.632;2023-06-10T09:43:20;4.90;;;4.50;;
22429;SDS011;11382;48.086;11.632;2023-06-10T09:45:49;5.35;;;4.63;;
22429;SDS011;11382;48.086;11.632;2023-06-10T09:48:19;4.82;;;4.43;;
22429;SDS011;11382;48.086;11.632;2023-06-10T09:50:48;5.10;;;4.60;;
22429;SDS011;11382;48.086;11.632;2023-06-10T09:53:18;5.90;;;4.60;;
22429;SDS011;11382;48.086;11.632;2023-06-10T09:55:46;5.28;;;4.70;;
22429;SDS011;11382;48.086;11.632;2023-06-10T09:58:14;5.93;;;5.13;;
22429;SDS011;11382;48.086;11.632;2023-06-10T10:00:42;5.20;;;4.70;;
22429;SDS011;11382;48.086;11.632;2023-06-10T10:03:11;5.70;;;5.20;;
22429;SDS011;11382;48.086;11.632;2023-06-10T10:05:50;5.57;;;5.07;;
22429;SDS011;11382;48.086;11.632;2023-06-10T10:08:27;5.78;;;4.85;;
22429;SDS011;11382;48.086;11.632;2023-06-10T10:10:56;5.78;;;4.43;;
22429;SDS011;11382;48.086;11.632;2023-06-10T10:13:25;5.22;;;4.47;;
22429;SDS011;11382;48.086;11.632;2023-06-10T10:15:55;4.45;;;4.05;;
22429;SDS011;11382;48.086;11.632;2023-06-10T10:18:28;5.20;;;4.00;;
22429;SDS011;11382;48.086;11.632;2023-06-10T10:21:00;4.05;;;3.70;;
22429;SDS011;11382;48.086;11.632;2023-06-10T10:23:34;4.70;;;3.88;;
22429;SDS011;11382;48.086;11.632;2023-06-10T10:26:09;4.55;;;4.15;;
22429;SDS011;11382;48.086;11.632;2023-06-10T10:28:41;5.40;;;4.07;;
22429;SDS011;11382;48.086;11.632;2023-06-10T10:31:12;4.18;;;3.78;;
22429;SDS011;11382;48.086;11.632;2023-06-10T10:33:48;6.45;;;3.88;;
22429;SDS011;11382;48.086;11.632;2023-06-10T10:36:20;4.10;;;3.75;;
22429;SDS011;11382;48.086;11.632;2023-06-10T10:38:50;4.38;;;3.97;;
22429;SDS011;11382;48.086;11.632;2023-06-10T10:41:18;4.60;;;4.20;;
22429;SDS011;11382;48.086;11.632;2023-06-10T10:43:47;4.70;;;4.30;;
22429;SDS011;11382;48.086;11.632;2023-06-10T10:46:18;4.70;;;4.30;;
22429;SDS011;11382;48.086;11.632;2023-06-10T10:48:47;4.65;;;3.92;;
22429;SDS011;11382;48.086;11.632;2023-06-10T10:51:20;4.70;;;3.90;;
22429;SDS011;11382;48.086;11.632;2023-06-10T10:56:40;4.72;;;4.22;;
22429;SDS011;11382;48.086;11.632;2023-06-10T10:59:57;5.03;;;4.32;;
22429;SDS011;11382;48.086;11.632;2023-06-10T11:02:32;5.13;;;3.60;;
22429;SDS011;11382;48.086;11.632;2023-06-10T11:05:02;4.18;;;3.78;;
22429;SDS011;11382;48.086;11.632;2023-06-10T11:07:30;6.30;;;3.90;;
22429;SDS011;11382;48.086;11.632;2023-06-10T11:10:01;4.60;;;3.90;;
22429;SDS011;11382;48.086;11.632;2023-06-10T11:12:40;4.45;;;4.05;;
22429;SDS011;11382;48.086;11.632;2023-06-10T11:15:18;4.00;;;3.60;;
22429;SDS011;11382;48.086;11.632;2023-06-10T11:18:06;4.00;;;3.70;;
22429;SDS011;11382;48.086;11.632;2023-06-10T11:20:53;5.15;;;3.92;;
22429;SDS011;11382;48.086;11.632;2023-06-10T11:23:29;3.80;;;3.40;;
22429;SDS011;11382;48.086;11.632;2023-06-10T11:26:11;3.80;;;3.42;;
22429;SDS011;11382;48.086;11.632;2023-06-10T11:29:02;4.10;;;3.47;;
22429;SDS011;11382;48.086;11.632;2023-06-10T11:31:33;3.50;;;3.20;;
22429;SDS011;11382;48.086;11.632;2023-06-10T11:36:34;3.60;;;3.30;;
22429;SDS011;11382;48.086;11.632;2023-06-10T11:39:04;3.30;;;3.00;;
22429;SDS011;11382;48.086;11.632;2023-06-10T11:41:35;3.03;;;2.58;;
22429;SDS011;11382;48.086;11.632;2023-06-10T11:44:07;3.20;;;2.90;;
22429;SDS011;11382;48.086;11.632;2023-06-10T11:46:36;3.28;;;2.70;;
22429;SDS011;11382;48.086;11.632;2023-06-10T11:49:05;3.45;;;3.10;;
22429;SDS011;11382;48.086;11.632;2023-06-10T11:51:34;3.33;;;3.03;;
22429;SDS011;11382;48.086;11.632;2023-06-10T11:54:04;3.25;;;2.83;;
22429;SDS011;11382;48.086;11.632;2023-06-10T11:56:32;3.53;;;3.20;;
22429;SDS011;11382;48.086;11.632;2023-06-10T11:59:03;2.92;;;2.72;;
22429;SDS011;11382;48.086;11.632;2023-06-10T12:01:33;3.38;;;3.08;;
22429;SDS011;11382;48.086;11.632;2023-06-10T12:06:37;3.17;;;2.88;;
22429;SDS011;11382;48.086;11.632;2023-06-10T12:09:07;3.20;;;2.90;;
22429;SDS011;11382;48.086;11.632;2023-06-10T12:17:20;5.75;;;2.70;;
22429;SDS011;11382;48.086;11.632;2023-06-10T12:19:50;2.85;;;2.45;;
22429;SDS011;11382;48.086;11.632;2023-06-10T12:22:18;2.53;;;2.33;;
22429;SDS011;11382;48.086;11.632;2023-06-10T12:24:57;3.38;;;2.42;;
22429;SDS011;11382;48.086;11.632;2023-06-10T12:27:28;5.25;;;3.03;;
22429;SDS011;11382;48.086;11.632;2023-06-10T12:29:58;3.08;;;2.78;;
22429;SDS011;11382;48.086;11.632;2023-06-10T12:32:36;3.30;;;3.00;;
22429;SDS011;11382;48.086;11.632;2023-06-10T12:35:06;2.92;;;2.63;;
22429;SDS011;11382;48.086;11.632;2023-06-10T12:37:36;2.33;;;2.13;;
22429;SDS011;11382;48.086;11.632;2023-06-10T12:40:08;3.00;;;2.70;;
22429;SDS011;11382;48.086;11.632;2023-06-10T12:42:39;2.90;;;2.60;;
22429;SDS011;11382;48.086;11.632;2023-06-10T12:45:08;2.60;;;2.40;;
22429;SDS011;11382;48.086;11.632;2023-06-10T12:47:39;3.58;;;2.55;;
22429;SDS011;11382;48.086;11.632;2023-06-10T12:50:08;3.70;;;2.40;;
22429;SDS011;11382;48.086;11.632;2023-06-10T12:52:38;4.57;;;3.55;;
22429;SDS011;11382;48.086;11.632;2023-06-10T12:55:07;6.43;;;4.35;;
22429;SDS011;11382;48.086;11.632;2023-06-10T12:57:36;5.03;;;3.58;;
22429;SDS011;11382;48.086;11.632;2023-06-10T13:00:15;5.63;;;3.53;;
22429;SDS011;11382;48.086;11.632;2023-06-10T13:02:44;4.72;;;3.53;;
22429;SDS011;11382;48.086;11.632;2023-06-10T13:05:12;4.00;;;3.20;;
22429;SDS011;11382;48.086;11.632;2023-06-10T13:07:43;6.05;;;3.33;;
22429;SDS011;11382;48.086;11.632;2023-06-10T13:10:11;5.07;;;3.58;;
22429;SDS011;11382;48.086;11.632;2023-06-10T13:12:41;3.78;;;3.45;;
22429;SDS011;11382;48.086;11.632;2023-06-10T13:15:14;5.60;;;4.13;;
22429;SDS011;11382;48.086;11.632;2023-06-10T13:17:42;4.40;;;3.58;;
22429;SDS011;11382;48.086;11.632;2023-06-10T13:20:12;4.38;;;3.85;;
22429;SDS011;11382;48.086;11.632;2023-06-10T13:22:40;4.45;;;4.05;;
22429;SDS011;11382;48.086;11.632;2023-06-10T13:25:08;4.32;;;3.75;;
22429;SDS011;11382;48.086;11.632;2023-06-10T13:27:38;7.13;;;4.50;;
22429;SDS011;11382;48.086;11.632;2023-06-10T13:30:09;4.85;;;4.18;;
22429;SDS011;11382;48.086;11.632;2023-06-10T13:32:38;5.05;;;3.72;;
22429;SDS011;11382;48.086;11.632;2023-06-10T13:35:06;3.95;;;3.65;;
22429;SDS011;11382;48.086;11.632;2023-06-10T13:37:36;5.03;;;4.07;;
22429;SDS011;11382;48.086;11.632;2023-06-10T13:40:05;4.28;;;3.75;;
22429;SDS011;11382;48.086;11.632;2023-06-10T13:42:34;5.00;;;3.63;;
22429;SDS011;11382;48.086;11.632;2023-06-10T13:45:03;3.60;;;3.28;;
22429;SDS011;11382;48.086;11.632;2023-06-10T13:47:34;5.15;;;3.90;;
22429;SDS011;11382;48.086;11.632;2023-06-10T13:50:02;3.45;;;3.13;;
22429;SDS011;11382;48.086;11.632;2023-06-10T13:52:30;3.53;;;3.22;;
22429;SDS011;11382;48.086;11.632;2023-06-10T13:54:58;3.63;;;3.10;;
22429;SDS011;11382;48.086;11.632;2023-06-10T13:57:26;5.40;;;3.40;;
22429;SDS011;11382;48.086;11.632;2023-06-10T13:59:54;4.10;;;3.70;;
22429;SDS011;11382;48.086;11.632;2023-06-10T14:02:22;4.50;;;3.17;;
22429;SDS011;11382;48.086;11.632;2023-06-10T14:04:52;3.20;;;2.90;;
22429;SDS011;11382;48.086;11.632;2023-06-10T14:07:20;3.83;;;3.13;;
22429;SDS011;11382;48.086;11.632;2023-06-10T14:09:48;2.78;;;2.58;;
22429;SDS011;11382;48.086;11.632;2023-06-10T14:12:17;4.60;;;3.30;;
22429;SDS011;11382;48.086;11.632;2023-06-10T14:14:45;3.17;;;2.60;;
22429;SDS011;11382;48.086;11.632;2023-06-10T14:17:13;5.43;;;3.40;;
22429;SDS011;11382;48.086;11.632;2023-06-10T14:19:41;4.10;;;2.80;;
22429;SDS011;11382;48.086;11.632;2023-06-10T14:22:10;3.35;;;3.05;;
22429;SDS011;11382;48.086;11.632;2023-06-10T14:24:38;4.60;;;3.47;;
22429;SDS011;11382;48.086;11.632;2023-06-10T14:27:06;3.83;;;3.45;;
22429;SDS011;11382;48.086;11.632;2023-06-10T14:29:34;4.10;;;3.33;;
22429;SDS011;11382;48.086;11.632;2023-06-10T14:32:02;3.97;;;3.58;;
22429;SDS011;11382;48.086;11.632;2023-06-10T14:34:34;4.07;;;3.67;;
22429;SDS011;11382;48.086;11.632;2023-06-10T14:37:03;5.32;;;3.85;;
22429;SDS011;11382;48.086;11.632;2023-06-10T14:39:35;4.20;;;3.75;;
22429;SDS011;11382;48.086;11.632;2023-06-10T14:42:03;3.70;;;3.40;;
22429;SDS011;11382;48.086;11.632;2023-06-10T14:44:32;3.30;;;3.00;;
22429;SDS011;11382;48.086;11.632;2023-06-10T14:47:00;3.60;;;3.30;;
22429;SDS011;11382;48.086;11.632;2023-06-10T14:49:28;3.40;;;3.10;;
22429;SDS011;11382;48.086;11.632;2023-06-10T14:51:55;3.20;;;2.85;;
22429;SDS011;11382;48.086;11.632;2023-06-10T14:54:23;3.53;;;3.10;;
22429;SDS011;11382;48.086;11.632;2023-06-10T14:56:53;3.80;;;3.00;;
22429;SDS011;11382;48.086;11.632;2023-06-10T14:59:21;4.20;;;3.45;;
22429;SDS011;11382;48.086;11.632;2023-06-10T15:01:49;3.45;;;3.10;;